CheckWX is a tool to help pilots better visualize weather data.  It is not intended as a substitute for an official pre-flight weather briefing.

10:02:19 UTC

KMCW TAF
Mason City Municipal Airport
Mason City, Iowa, USA
KMCW 240608Z 2406/2506 08008KT 6SM -SHRA BR VCTS OVC060CB FM241000 11010KT P6SM VCSH OVC025 FM241500 14014G22KT P6SM OVC008 FM242100 18013KT P6SM BKN020 FM250000 21014G22KT P6SM BKN100

May-24@
06:00 UTC

May-24 @ 06:00 UTC

May-24@
10:00 UTC

May-24 @ 10:00 UTC

KMCW 240608Z 2406/2506 08008KT 6SM -SHRA BR VCTS OVC060CB

Expired

Wind
  • 080° at 8 KTS
Conditions
Light Rain, Mist, Area Thunderstorm
Cloud Levels
  • Overcast at 6,000' AGL

May-24@
10:00 UTC

May-24 @ 10:00 UTC

May-24@
15:00 UTC

May-24 @ 15:00 UTC

FM241000 11010KT P6SM VCSH OVC025

From

From Standard forecast or significant change

Wind
  • 110° at 10 KTS
Cloud Levels
  • Overcast at 2,500' AGL

May-24@
15:00 UTC

May-24 @ 15:00 UTC

May-24@
21:00 UTC

May-24 @ 21:00 UTC

FM241500 14014G22KT P6SM OVC008

From

From Standard forecast or significant change

Wind
  • 140° at 14 KTS
  • {Gusting to 22 KTS
Cloud Levels
  • Overcast at 800' AGL

May-24@
21:00 UTC

May-24 @ 21:00 UTC

May-25@
00:00 UTC

May-25 @ 00:00 UTC

FM242100 18013KT P6SM BKN020

From

From Standard forecast or significant change

Wind
  • 180° at 13 KTS
Cloud Levels
  • Broken at 2,000' AGL

May-25@
00:00 UTC

May-25 @ 00:00 UTC

May-25@
06:00 UTC

May-25 @ 06:00 UTC

FM250000 21014G22KT P6SM BKN100

From

From Standard forecast or significant change

Wind
  • 210° at 14 KTS
  • {Gusting to 22 KTS
Cloud Levels
  • Broken at 10,000' AGL